createdAt,value
2023-04-01T00:00:58.179Z,95044.00
2023-04-01T00:03:27.807Z,95054.81
2023-04-01T00:05:57.251Z,95044.34
2023-04-01T00:08:25.660Z,95046.72
2023-04-01T00:10:54.189Z,95045.22
2023-04-01T00:13:23.964Z,95047.66
2023-04-01T00:15:52.249Z,95041.28
2023-04-01T00:18:20.934Z,95020.81
2023-04-01T00:20:50.864Z,95044.00
2023-04-01T00:23:19.918Z,95046.50
2023-04-01T00:25:49.384Z,95043.72
2023-04-01T00:28:18.119Z,95042.31
2023-04-01T00:30:48.119Z,95044.78
2023-04-01T00:33:16.499Z,95037.88
2023-04-01T00:35:45.646Z,95040.66
2023-04-01T00:38:14.187Z,95044.63
2023-04-01T00:40:44.121Z,95041.22
2023-04-01T00:43:14.369Z,95042.84
2023-04-01T00:45:44.551Z,95040.94
2023-04-01T00:48:17.042Z,95038.34
2023-04-01T00:50:49.906Z,95038.50
2023-04-01T00:53:19.601Z,95045.75
2023-04-01T00:55:52.050Z,95045.22
2023-04-01T00:58:24.125Z,95049.09
2023-04-01T01:00:53.082Z,95043.47
2023-04-01T01:03:22.752Z,95034.38
2023-04-01T01:06:10.786Z,95038.13
2023-04-01T01:08:52.776Z,95035.41
2023-04-01T01:11:27.964Z,95035.84
2023-04-01T01:14:01.526Z,95038.31
2023-04-01T01:16:31.720Z,95037.28
2023-04-01T01:19:08.551Z,95037.25
2023-04-01T01:21:56.783Z,95039.53
2023-04-01T01:24:32.493Z,95041.38
2023-04-01T01:27:06.410Z,95027.22
2023-04-01T01:29:43.651Z,95024.34
2023-04-01T01:32:19.843Z,95027.13
2023-04-01T01:34:53.493Z,95032.84
2023-04-01T01:37:26.195Z,95024.09
2023-04-01T01:39:57.398Z,95032.75
2023-04-01T01:42:27.453Z,95032.03
2023-04-01T01:44:57.312Z,95032.31
2023-04-01T01:47:27.435Z,95031.19
2023-04-01T01:49:56.994Z,95040.09
2023-04-01T01:52:26.834Z,95036.84
2023-04-01T01:54:57.235Z,95025.84
2023-04-01T01:57:28.549Z,95025.66
2023-04-01T02:00:00.189Z,95029.00
2023-04-01T02:02:32.287Z,95024.66
2023-04-01T02:05:01.082Z,95043.38
2023-04-01T02:07:34.235Z,95036.50
2023-04-01T02:10:03.214Z,95033.69
2023-04-01T02:12:32.208Z,95040.09
2023-04-01T02:15:04.005Z,95038.22
2023-04-01T02:17:32.556Z,95035.59
2023-04-01T02:20:02.528Z,95041.16
2023-04-01T02:22:34.467Z,95039.75
2023-04-01T02:25:07.171Z,95037.50
2023-04-01T02:27:35.821Z,95031.88
2023-04-01T02:30:05.079Z,95036.28
2023-04-01T02:32:34.673Z,95022.91
2023-04-01T02:35:06.907Z,95027.28
2023-04-01T02:37:37.981Z,95031.66
2023-04-01T02:40:09.726Z,95036.44
2023-04-01T02:42:37.995Z,95032.03
2023-04-01T02:45:08.147Z,95021.78
2023-04-01T02:47:36.447Z,95029.72
2023-04-01T02:50:05.407Z,95042.28
2023-04-01T02:52:34.438Z,95054.28
2023-04-01T02:55:05.147Z,95015.69
2023-04-01T02:57:33.614Z,95054.88
2023-04-01T03:00:01.996Z,95056.06
2023-04-01T03:02:30.526Z,95053.25
2023-04-01T03:04:58.868Z,95060.56
2023-04-01T03:07:27.154Z,95055.16
2023-04-01T03:09:55.441Z,95050.09
2023-04-01T03:12:25.074Z,95051.81
2023-04-01T03:14:53.332Z,95058.94
2023-04-01T03:17:21.674Z,95061.00
2023-04-01T03:19:49.948Z,95066.16
2023-04-01T03:22:20.014Z,95062.59
2023-04-01T03:24:48.301Z,95070.19
2023-04-01T03:27:16.917Z,95076.59
2023-04-01T03:29:46.569Z,95078.84
2023-04-01T03:32:14.888Z,95071.06
2023-04-01T03:34:43.152Z,95081.09
2023-04-01T03:37:11.498Z,95089.44
2023-04-01T03:39:39.974Z,95097.63
2023-04-01T03:42:08.560Z,95088.28
2023-04-01T03:44:37.146Z,95091.84
2023-04-01T03:47:06.818Z,95094.50
2023-04-01T03:49:35.378Z,95097.38
2023-04-01T03:52:03.750Z,95098.50
2023-04-01T03:54:32.029Z,95108.34
2023-04-01T03:57:00.468Z,95116.53
2023-04-01T03:59:28.744Z,95104.06
2023-04-01T04:01:56.996Z,95108.63
2023-04-01T04:04:27.084Z,95118.50
2023-04-01T04:06:55.879Z,95095.09
2023-04-01T04:09:24.392Z,95074.41
2023-04-01T04:11:52.751Z,95109.75
2023-04-01T04:14:21.003Z,95106.63
2023-04-01T04:16:49.386Z,95101.75
2023-04-01T04:19:17.719Z,95114.31
2023-04-01T04:21:47.374Z,95116.72
2023-04-01T04:24:15.783Z,95117.00
2023-04-01T04:26:44.190Z,95120.31
2023-04-01T04:29:12.443Z,95117.03
2023-04-01T04:31:40.843Z,95124.38
2023-04-01T04:34:09.160Z,95124.66
2023-04-01T04:36:37.468Z,95116.94
2023-04-01T04:39:07.090Z,95116.03
2023-04-01T04:41:37.545Z,95121.69
2023-04-01T04:44:05.896Z,95124.78
2023-04-01T04:46:34.221Z,95128.63
2023-04-01T04:49:02.506Z,95128.13
2023-04-01T04:51:31.067Z,95129.00
2023-04-01T04:53:59.326Z,95133.22
2023-04-01T04:56:29.068Z,95124.50
2023-04-01T04:58:57.337Z,95132.41
2023-04-01T05:01:26.357Z,95122.88
2023-04-01T05:03:54.646Z,95133.69
2023-04-01T05:06:23.635Z,95122.28
2023-04-01T05:08:52.083Z,95115.78
2023-04-01T05:11:22.111Z,95124.41
2023-04-01T05:13:52.223Z,95118.06
2023-04-01T05:16:22.064Z,95117.44
2023-04-01T05:18:50.398Z,95127.69
2023-04-01T05:21:18.666Z,95119.16
2023-04-01T05:23:47.009Z,95132.06
2023-04-01T05:26:16.445Z,95123.22
2023-04-01T05:28:44.786Z,95122.91
2023-04-01T05:31:14.541Z,95117.66
2023-04-01T05:33:42.881Z,95119.94
2023-04-01T05:36:12.812Z,95121.47
2023-04-01T05:38:41.955Z,95113.00
2023-04-01T05:41:10.307Z,95111.00
2023-04-01T05:43:39.112Z,95119.09
2023-04-01T05:46:07.783Z,95111.97
2023-04-01T05:48:37.601Z,95111.28
2023-04-01T05:51:06.715Z,95108.69
2023-04-01T05:53:34.929Z,95121.03
2023-04-01T05:56:06.624Z,95122.88
2023-04-01T05:58:34.893Z,95120.53
2023-04-01T06:01:10.269Z,95114.88
2023-04-01T06:03:40.940Z,95118.63
2023-04-01T06:06:16.544Z,95121.88
2023-04-01T06:08:44.994Z,95121.56
2023-04-01T06:11:24.705Z,95124.78
2023-04-01T06:14:14.330Z,95123.19
2023-04-01T06:16:54.073Z,95119.56
2023-04-01T06:19:34.311Z,95127.81
2023-04-01T06:22:24.604Z,95118.53
2023-04-01T06:25:06.713Z,95121.88
2023-04-01T06:27:49.677Z,95126.63
2023-04-01T06:30:35.887Z,95115.25
2023-04-01T06:33:36.463Z,95118.97
2023-04-01T06:36:20.314Z,95112.88
2023-04-01T06:39:00.377Z,95123.28
2023-04-01T06:41:49.822Z,95120.28
2023-04-01T06:44:21.293Z,95114.34
2023-04-01T06:46:50.721Z,95121.72
2023-04-01T06:49:36.069Z,95122.28
2023-04-01T06:52:14.214Z,95126.00
2023-04-01T06:54:44.941Z,95127.97
2023-04-01T06:57:22.937Z,95106.91
2023-04-01T06:59:51.320Z,95117.28
2023-04-01T07:02:26.625Z,95129.41
2023-04-01T07:04:56.853Z,95130.47
2023-04-01T07:07:34.120Z,95113.19
2023-04-01T07:10:05.286Z,95127.06
2023-04-01T07:12:40.686Z,95125.00
2023-04-01T07:15:18.365Z,95114.81
2023-04-01T07:17:48.317Z,95125.22
2023-04-01T07:20:21.672Z,95120.91
2023-04-01T07:22:52.954Z,95130.56
2023-04-01T07:25:26.447Z,95114.22
2023-04-01T07:27:55.960Z,95134.09
2023-04-01T07:30:26.067Z,95136.31
2023-04-01T07:32:59.790Z,95147.16
2023-04-01T07:35:33.813Z,95129.38
2023-04-01T07:38:13.810Z,95129.38
2023-04-01T07:40:49.607Z,95101.81
2023-04-01T07:44:00.699Z,95133.28
2023-04-01T07:46:47.730Z,95121.41
2023-04-01T07:49:19.829Z,95146.75
2023-04-01T07:51:54.499Z,95117.75
2023-04-01T07:54:28.774Z,95145.47
2023-04-01T07:57:01.359Z,95118.75
2023-04-01T07:59:36.031Z,95135.66
2023-04-01T08:02:11.284Z,95134.44
2023-04-01T08:04:51.641Z,95144.50
2023-04-01T08:07:22.732Z,95128.16
2023-04-01T08:09:58.106Z,95140.00
2023-04-01T08:12:36.636Z,95124.28
2023-04-01T08:15:13.461Z,95115.28
2023-04-01T08:17:49.422Z,95131.81
2023-04-01T08:20:28.682Z,95138.16
2023-04-01T08:23:04.003Z,95135.38
2023-04-01T08:25:35.012Z,95128.69
2023-04-01T08:28:12.913Z,95131.84
2023-04-01T08:30:45.545Z,95121.81
2023-04-01T08:33:19.477Z,95125.25
2023-04-01T08:35:51.345Z,95123.81
2023-04-01T08:38:22.902Z,95110.22
2023-04-01T08:41:01.374Z,95118.13
2023-04-01T08:44:00.988Z,95110.94
2023-04-01T08:47:05.039Z,95115.75
2023-04-01T08:50:03.925Z,95097.78
2023-04-01T08:52:37.386Z,95084.66
2023-04-01T08:55:33.889Z,95126.06
2023-04-01T08:58:34.670Z,95109.47
2023-04-01T09:01:13.703Z,95106.94
2023-04-01T09:03:59.528Z,95094.59
2023-04-01T09:06:32.046Z,95126.09
2023-04-01T09:09:12.032Z,95117.00
2023-04-01T09:11:53.609Z,95080.09
2023-04-01T09:14:42.463Z,95106.84
2023-04-01T09:17:32.647Z,95128.97
2023-04-01T09:20:16.423Z,95095.44
2023-04-01T09:22:53.493Z,95096.34
2023-04-01T09:25:31.870Z,95099.28
2023-04-01T09:28:07.676Z,95095.19
2023-04-01T09:30:48.484Z,95110.47
2023-04-01T09:33:45.934Z,95099.75
2023-04-01T09:36:21.571Z,95091.66
2023-04-01T09:38:58.394Z,95089.06
2023-04-01T09:41:31.875Z,95086.13
2023-04-01T09:44:04.764Z,95088.53
2023-04-01T09:46:45.106Z,95092.53
2023-04-01T09:49:37.365Z,95089.63
2023-04-01T09:52:16.345Z,95084.53
2023-04-01T09:54:55.275Z,95063.72
2023-04-01T09:57:50.316Z,95073.09
2023-04-01T10:00:50.187Z,95074.56
2023-04-01T10:03:45.977Z,95065.38
2023-04-01T10:06:35.263Z,95068.97
2023-04-01T10:09:35.623Z,95068.19
2023-04-01T10:12:42.084Z,95071.38
2023-04-01T10:15:32.213Z,95058.81
2023-04-01T10:18:29.738Z,95063.81
2023-04-01T10:21:21.973Z,95073.03
2023-04-01T10:24:23.731Z,95065.97
2023-04-01T10:27:18.712Z,95071.50
2023-04-01T10:30:08.698Z,95069.66
2023-04-01T10:33:16.756Z,95055.06
2023-04-01T10:36:29.734Z,95073.78
2023-04-01T10:39:25.800Z,95043.88
2023-04-01T10:42:22.944Z,95075.69
2023-04-01T10:45:46.763Z,95060.25
2023-04-01T10:48:21.638Z,95059.72
2023-04-01T10:51:18.393Z,95067.41
2023-04-01T10:54:11.433Z,95050.94
2023-04-01T10:56:46.332Z,95028.94
2023-04-01T10:59:44.402Z,95046.53
2023-04-01T11:02:49.701Z,95077.91
2023-04-01T11:05:35.108Z,95059.47
2023-04-01T11:08:35.545Z,95073.94
2023-04-01T11:11:27.478Z,95068.03
2023-04-01T11:14:20.979Z,95079.19
2023-04-01T11:17:14.903Z,95082.22
2023-04-01T11:19:58.456Z,95099.28
2023-04-01T11:22:42.590Z,95077.66
2023-04-01T11:25:36.943Z,95082.84
2023-04-01T11:28:25.072Z,95085.13
2023-04-01T11:31:06.239Z,95101.38
2023-04-01T11:33:38.151Z,95092.97
2023-04-01T11:36:12.268Z,95092.09
2023-04-01T11:39:03.174Z,95095.69
2023-04-01T11:41:39.303Z,95073.53
2023-04-01T11:44:17.406Z,95095.47
2023-04-01T11:46:55.120Z,95100.03
2023-04-01T11:49:35.593Z,95126.28
2023-04-01T11:52:17.691Z,95137.50
2023-04-01T11:55:08.866Z,95125.94
2023-04-01T11:57:51.692Z,95133.69
2023-04-01T12:00:44.773Z,95127.88
2023-04-01T12:03:24.304Z,95135.84
2023-04-01T12:05:56.453Z,95139.63
2023-04-01T12:08:33.661Z,95109.72
2023-04-01T12:11:06.084Z,95139.34
2023-04-01T12:13:42.089Z,95134.88
2023-04-01T12:16:20.911Z,95139.34
2023-04-01T12:18:53.007Z,95137.09
2023-04-01T12:21:27.326Z,95131.53
2023-04-01T12:24:28.266Z,95141.63
2023-04-01T12:27:04.827Z,95141.22
2023-04-01T12:29:50.576Z,95135.44
2023-04-01T12:32:25.954Z,95133.88
2023-04-01T12:35:12.877Z,95141.38
2023-04-01T12:37:44.551Z,95143.56
2023-04-01T12:40:40.348Z,95132.22
2023-04-01T12:43:23.628Z,95117.66
2023-04-01T12:45:57.474Z,95101.78
2023-04-01T12:48:39.103Z,95136.13
2023-04-01T12:51:31.966Z,95132.66
2023-04-01T12:54:47.609Z,95124.09
2023-04-01T12:57:32.368Z,95126.03
2023-04-01T13:00:13.683Z,95123.16
2023-04-01T13:02:53.576Z,95124.22
2023-04-01T13:05:46.911Z,95135.72
2023-04-01T13:08:33.050Z,95133.81
2023-04-01T13:11:11.069Z,95142.19
2023-04-01T13:14:24.979Z,95143.06
2023-04-01T13:17:00.357Z,95137.91
2023-04-01T13:19:35.593Z,95141.50
2023-04-01T13:22:09.066Z,95138.28
2023-04-01T13:24:45.884Z,95150.50
2023-04-01T13:27:19.076Z,95132.63
2023-04-01T13:30:04.997Z,95144.88
2023-04-01T13:32:43.614Z,95142.28
2023-04-01T13:35:21.022Z,95140.88
2023-04-01T13:37:56.726Z,95143.22
2023-04-01T13:40:38.289Z,95149.19
2023-04-01T13:43:12.479Z,95149.59
2023-04-01T13:45:49.309Z,95150.00
2023-04-01T13:48:35.646Z,95141.19
2023-04-01T13:51:40.374Z,95134.75
2023-04-01T13:54:36.329Z,95141.72
2023-04-01T13:57:20.535Z,95156.25
2023-04-01T14:00:12.923Z,95141.06
2023-04-01T14:02:55.882Z,95155.88
2023-04-01T14:05:47.509Z,95153.69
2023-04-01T14:08:26.571Z,95142.97
2023-04-01T14:11:04.433Z,95144.53
2023-04-01T14:13:36.956Z,95133.59
2023-04-01T14:16:22.716Z,95133.22
2023-04-01T14:19:05.828Z,95139.75
2023-04-01T14:21:38.274Z,95141.72
2023-04-01T14:24:47.041Z,95138.72
2023-04-01T14:27:33.546Z,95147.25
2023-04-01T14:30:17.433Z,95137.06
2023-04-01T14:32:54.573Z,95140.38
2023-04-01T14:35:34.188Z,95132.63
2023-04-01T14:38:26.150Z,95149.19
2023-04-01T14:40:59.047Z,95109.28
2023-04-01T14:43:52.153Z,95154.28
2023-04-01T14:46:37.250Z,95154.91
2023-04-01T14:49:15.939Z,95164.13
2023-04-01T14:51:44.490Z,95155.75
2023-04-01T14:54:23.405Z,95163.88
2023-04-01T14:56:54.304Z,95118.59
2023-04-01T14:59:29.665Z,95163.09
2023-04-01T15:02:03.737Z,95163.50
2023-04-01T15:04:56.764Z,95164.53
2023-04-01T15:08:03.041Z,95134.69
2023-04-01T15:10:59.388Z,95150.03
2023-04-01T15:13:42.768Z,95162.47
2023-04-01T15:16:16.922Z,95158.59
2023-04-01T15:18:54.785Z,95161.25
2023-04-01T15:21:54.911Z,95169.53
2023-04-01T15:24:25.229Z,95171.00
2023-04-01T15:27:09.216Z,95159.81
2023-04-01T15:29:54.211Z,95161.75
2023-04-01T15:32:25.875Z,95147.34
2023-04-01T15:34:59.393Z,95174.06
2023-04-01T15:37:34.868Z,95164.06
2023-04-01T15:40:16.779Z,95179.16
2023-04-01T15:42:55.270Z,95160.59
2023-04-01T15:45:36.920Z,95180.84
2023-04-01T15:48:24.917Z,95155.94
2023-04-01T15:51:10.008Z,95178.00
2023-04-01T15:54:03.067Z,95173.31
2023-04-01T15:56:42.231Z,95181.03
2023-04-01T15:59:20.704Z,95188.84
2023-04-01T16:01:56.100Z,95182.31
2023-04-01T16:04:39.523Z,95182.81
2023-04-01T16:07:13.188Z,95179.84
2023-04-01T16:10:09.650Z,95190.03
2023-04-01T16:12:49.436Z,95182.66
2023-04-01T16:15:24.727Z,95187.41
2023-04-01T16:18:11.075Z,95195.34
2023-04-01T16:20:46.828Z,95198.41
2023-04-01T16:23:20.729Z,95181.22
2023-04-01T16:25:54.288Z,95189.66
2023-04-01T16:28:26.814Z,95183.88
2023-04-01T16:31:00.826Z,95200.06
2023-04-01T16:33:40.327Z,95190.06
2023-04-01T16:36:13.317Z,95196.59
2023-04-01T16:38:45.394Z,95185.94
2023-04-01T16:41:18.439Z,95191.44
2023-04-01T16:43:49.379Z,95170.66
2023-04-01T16:46:29.954Z,95181.47
2023-04-01T16:49:06.437Z,95179.81
2023-04-01T16:51:42.978Z,95190.44
2023-04-01T16:54:16.424Z,95178.81
2023-04-01T16:56:47.723Z,95183.72
2023-04-01T16:59:22.174Z,95205.59
2023-04-01T17:01:54.546Z,95192.50
2023-04-01T17:04:32.976Z,95189.03
2023-04-01T17:07:08.345Z,95202.91
2023-04-01T17:09:48.213Z,95220.88
2023-04-01T17:12:22.508Z,95213.13
2023-04-01T17:14:57.335Z,95207.19
2023-04-01T17:17:32.211Z,95210.47
2023-04-01T17:20:28.925Z,95221.13
2023-04-01T17:22:59.942Z,95225.00
2023-04-01T17:25:47.236Z,95224.59
2023-04-01T17:28:26.977Z,95225.59
2023-04-01T17:31:00.863Z,95224.38
2023-04-01T17:33:41.434Z,95236.03
2023-04-01T17:36:19.239Z,95226.19
2023-04-01T17:38:59.086Z,95230.25
2023-04-01T17:41:33.549Z,95235.00
2023-04-01T17:44:13.099Z,95241.63
2023-04-01T17:46:51.462Z,95225.09
2023-04-01T17:49:27.858Z,95226.63
2023-04-01T17:52:02.864Z,95246.44
2023-04-01T17:54:38.184Z,95253.94
2023-04-01T17:57:25.518Z,95257.47
2023-04-01T17:59:59.417Z,95254.59
2023-04-01T18:02:33.330Z,95247.03
2023-04-01T18:05:19.766Z,95262.97
2023-04-01T18:07:59.201Z,95251.56
2023-04-01T18:10:31.281Z,95266.88
2023-04-01T18:13:16.700Z,95265.25
2023-04-01T18:15:48.389Z,95273.00
2023-04-01T18:18:42.872Z,95276.50
2023-04-01T18:21:16.690Z,95274.03
2023-04-01T18:24:01.684Z,95278.53
2023-04-01T18:26:33.785Z,95282.63
2023-04-01T18:29:06.574Z,95284.47
2023-04-01T18:31:38.228Z,95285.28
2023-04-01T18:34:10.037Z,95287.91
2023-04-01T18:36:43.244Z,95286.91
2023-04-01T18:39:18.020Z,95289.16
2023-04-01T18:41:55.422Z,95295.47
2023-04-01T18:44:37.436Z,95301.25
2023-04-01T18:47:13.725Z,95302.84
2023-04-01T18:49:46.807Z,95298.56
2023-04-01T18:52:19.567Z,95311.88
2023-04-01T18:54:58.177Z,95311.63
2023-04-01T18:57:27.185Z,95302.66
2023-04-01T18:59:57.718Z,95312.91
2023-04-01T19:02:32.252Z,95312.50
2023-04-01T19:05:05.115Z,95316.53
2023-04-01T19:07:48.959Z,95314.91
2023-04-01T19:10:25.556Z,95320.00
2023-04-01T19:13:17.599Z,95332.09
2023-04-01T19:15:49.197Z,95322.88
2023-04-01T19:18:31.994Z,95332.31
2023-04-01T19:21:04.119Z,95320.94
2023-04-01T19:23:57.657Z,95326.19
2023-04-01T19:26:29.482Z,95338.66
2023-04-01T19:29:00.545Z,95336.41
2023-04-01T19:31:41.254Z,95345.22
2023-04-01T19:34:11.492Z,95343.91
2023-04-01T19:36:47.440Z,95344.81
2023-04-01T19:39:28.382Z,95344.16
2023-04-01T19:42:02.353Z,95352.69
2023-04-01T19:44:41.596Z,95340.50
2023-04-01T19:47:17.198Z,95344.78
2023-04-01T19:49:53.923Z,95355.19
2023-04-01T19:52:28.634Z,95349.91
2023-04-01T19:55:02.862Z,95352.75
2023-04-01T19:57:43.009Z,95350.84
2023-04-01T20:00:18.602Z,95358.28
2023-04-01T20:02:57.449Z,95354.41
2023-04-01T20:05:35.371Z,95360.34
2023-04-01T20:08:09.905Z,95362.78
2023-04-01T20:10:43.888Z,95368.09
2023-04-01T20:13:23.627Z,95372.81
2023-04-01T20:16:01.224Z,95378.31
2023-04-01T20:18:36.707Z,95378.72
2023-04-01T20:21:08.202Z,95382.56
2023-04-01T20:23:42.140Z,95382.97
2023-04-01T20:26:11.453Z,95386.47
2023-04-01T20:28:51.061Z,95383.19
2023-04-01T20:31:27.249Z,95390.59
2023-04-01T20:34:25.598Z,95396.66
2023-04-01T20:37:02.967Z,95394.66
2023-04-01T20:40:02.518Z,95387.47
2023-04-01T20:42:37.084Z,95384.44
2023-04-01T20:45:24.623Z,95384.06
2023-04-01T20:48:05.206Z,95380.56
2023-04-01T20:50:37.270Z,95385.41
2023-04-01T20:53:07.959Z,95396.97
2023-04-01T20:55:49.767Z,95393.47
2023-04-01T20:58:26.027Z,95392.84
2023-04-01T21:01:02.857Z,95395.00
2023-04-01T21:03:40.206Z,95397.31
2023-04-01T21:06:46.804Z,95404.00
2023-04-01T21:09:37.370Z,95399.19
2023-04-01T21:12:17.379Z,95400.22
2023-04-01T21:14:59.377Z,95400.94
2023-04-01T21:17:37.698Z,95414.53
2023-04-01T21:20:19.645Z,95407.78
2023-04-01T21:22:56.568Z,95409.81
2023-04-01T21:25:30.687Z,95408.19
2023-04-01T21:28:10.034Z,95411.47
2023-04-01T21:30:49.171Z,95416.91
2023-04-01T21:33:46.806Z,95419.63
2023-04-01T21:36:28.524Z,95414.94
2023-04-01T21:39:04.683Z,95420.06
2023-04-01T21:41:41.097Z,95426.22
2023-04-01T21:44:43.634Z,95426.81
2023-04-01T21:47:49.457Z,95427.25
2023-04-01T21:51:00.554Z,95439.66
2023-04-01T21:53:52.293Z,95441.53
2023-04-01T21:57:02.159Z,95449.94
2023-04-01T22:00:19.382Z,95445.00
2023-04-01T22:03:23.963Z,95439.28
2023-04-01T22:06:01.105Z,95447.03
2023-04-01T22:08:48.823Z,95449.50
2023-04-01T22:11:23.688Z,95453.00
2023-04-01T22:13:53.314Z,95457.47
2023-04-01T22:16:27.572Z,95452.59
2023-04-01T22:19:02.645Z,95451.97
2023-04-01T22:21:40.052Z,95453.22
2023-04-01T22:24:12.361Z,95459.88
2023-04-01T22:26:43.712Z,95457.56
2023-04-01T22:29:18.069Z,95466.41
2023-04-01T22:31:50.941Z,95462.06
2023-04-01T22:34:22.086Z,95455.44
2023-04-01T22:36:56.884Z,95461.19
2023-04-01T22:39:46.614Z,95462.81
2023-04-01T22:42:27.450Z,95462.31
2023-04-01T22:45:04.357Z,95464.03
2023-04-01T22:47:41.856Z,95471.00
2023-04-01T22:50:16.162Z,95470.84
2023-04-01T22:52:48.058Z,95469.72
2023-04-01T22:55:19.578Z,95468.59
2023-04-01T22:57:51.618Z,95477.09
2023-04-01T23:00:23.481Z,95467.22
2023-04-01T23:03:07.084Z,95471.34
2023-04-01T23:05:37.243Z,95484.25
2023-04-01T23:08:34.450Z,95481.25
2023-04-01T23:11:05.360Z,95478.72
2023-04-01T23:13:39.001Z,95480.59
2023-04-01T23:16:08.193Z,95483.56
2023-04-01T23:18:43.117Z,95489.22
2023-04-01T23:21:14.768Z,95493.97
2023-04-01T23:23:56.112Z,95489.50
2023-04-01T23:26:28.114Z,95487.06
2023-04-01T23:28:57.645Z,95484.88
2023-04-01T23:31:32.013Z,95493.56
2023-04-01T23:34:02.050Z,95487.97
2023-04-01T23:36:32.172Z,95498.94
2023-04-01T23:39:06.004Z,95493.06
2023-04-01T23:41:34.837Z,95482.81
2023-04-01T23:44:07.916Z,95488.56
2023-04-01T23:46:37.227Z,95485.97
2023-04-01T23:49:06.115Z,95494.16
2023-04-01T23:51:40.511Z,95501.94
2023-04-01T23:54:29.716Z,95501.88
2023-04-01T23:56:58.786Z,95497.44
2023-04-01T23:59:31.003Z,95494.13
